Time;durP1;ratioP1;P1;durP2;ratioP2;P2;SDS_P1;SDS_P2;PMS_P1;PMS_P2;Temp;Humidity;BMP_temperature;BMP_pressure;BME280_temperature;BME280_humidity;BME280_pressure;Samples;Min_cycle;Max_cycle;Signal;HPM_P1;HPM_P2
2024/02/01 00:00:32;;;;;;;9.35;7.07;;;9.20;99.90;;;;;;4917105;29;20224;-76
2024/02/01 00:02:59;;;;;;;9.40;8.40;;;9.20;99.90;;;;;;4911662;29;20233;-76
2024/02/01 00:05:26;;;;;;;9.27;7.18;;;9.20;99.90;;;;;;4897111;29;20226;-76
2024/02/01 00:07:53;;;;;;;7.07;6.40;;;9.20;99.90;;;;;;4900582;29;20236;-76
2024/02/01 00:10:20;;;;;;;12.05;9.55;;;9.20;99.90;;;;;;4897898;29;20250;-77
2024/02/01 00:12:51;;;;;;;18.80;12.27;;;9.20;99.90;;;;;;4883799;29;20640;-77
2024/02/01 00:15:18;;;;;;;10.68;8.35;;;9.20;99.90;;;;;;4882888;29;20227;-77
2024/02/01 00:17:49;;;;;;;11.23;8.80;;;9.20;99.90;;;;;;4883275;29;20313;-78
2024/02/01 00:20:16;;;;;;;7.18;5.65;;;9.10;99.90;;;;;;4882208;29;20258;-78
2024/02/01 00:22:46;;;;;;;7.30;6.60;;;9.10;99.90;;;;;;4883212;29;20240;-78
2024/02/01 00:25:15;;;;;;;17.63;14.63;;;9.10;99.90;;;;;;4883021;29;20768;-77
2024/02/01 00:27:42;;;;;;;12.40;9.45;;;9.00;99.90;;;;;;4883293;29;20231;-78
2024/02/01 00:30:09;;;;;;;9.82;6.82;;;8.90;99.90;;;;;;4882088;29;20245;-77
2024/02/01 00:32:36;;;;;;;8.13;6.90;;;9.00;99.90;;;;;;4898899;29;20233;-77
2024/02/01 00:35:06;;;;;;;8.05;7.35;;;9.00;99.90;;;;;;4901299;29;20308;-77
2024/02/01 00:37:33;;;;;;;7.95;7.15;;;9.00;99.90;;;;;;4901369;29;20226;-78
2024/02/01 00:40:03;;;;;;;19.92;15.00;;;8.90;99.90;;;;;;4901638;29;20588;-77
2024/02/01 00:42:35;;;;;;;11.75;9.45;;;8.90;99.90;;;;;;4902207;29;20229;-78
2024/02/01 00:45:02;;;;;;;7.05;6.00;;;8.90;99.90;;;;;;4920645;29;20237;-78
2024/02/01 00:47:29;;;;;;;24.77;16.33;;;8.90;99.90;;;;;;4919987;29;20236;-77
2024/02/01 00:49:56;;;;;;;7.07;6.38;;;8.90;99.90;;;;;;4920018;29;20233;-77
2024/02/01 00:52:24;;;;;;;8.35;6.80;;;8.90;99.90;;;;;;4919902;29;20629;-77
2024/02/01 00:54:51;;;;;;;11.02;9.98;;;8.90;99.90;;;;;;4920180;29;20247;-77
2024/02/01 00:57:18;;;;;;;8.80;7.88;;;8.90;99.90;;;;;;4919558;29;20237;-76
2024/02/01 00:59:45;;;;;;;8.30;7.55;;;8.90;99.90;;;;;;4920046;29;20308;-77
2024/02/01 01:02:13;;;;;;;7.07;6.15;;;8.90;99.90;;;;;;4919096;29;20233;-76
2024/02/01 01:04:40;;;;;;;13.48;12.13;;;8.90;99.90;;;;;;4920239;29;20760;-78
2024/02/01 01:07:07;;;;;;;7.95;7.15;;;9.00;99.90;;;;;;4920031;29;20229;-75
2024/02/01 01:09:36;;;;;;;14.95;10.48;;;8.90;99.90;;;;;;4919735;29;20225;-76
2024/02/01 01:12:03;;;;;;;10.73;8.50;;;9.00;99.90;;;;;;4902131;29;20257;-76
2024/02/01 01:14:30;;;;;;;10.65;7.90;;;8.90;99.90;;;;;;4900477;29;20230;-76
2024/02/01 01:16:57;;;;;;;32.20;22.05;;;9.00;99.90;;;;;;4901179;29;20238;-76
2024/02/01 01:19:25;;;;;;;15.57;11.48;;;9.00;99.90;;;;;;4899112;29;20309;-76
2024/02/01 01:21:53;;;;;;;10.48;9.45;;;9.00;99.90;;;;;;4901022;29;20313;-76
2024/02/01 01:24:20;;;;;;;5.90;5.35;;;9.00;99.90;;;;;;4900092;29;20248;-76
2024/02/01 01:26:48;;;;;;;10.95;9.82;;;9.10;99.90;;;;;;4900813;29;20715;-76
2024/02/01 01:29:16;;;;;;;7.60;6.93;;;9.00;99.90;;;;;;4900776;29;20681;-76
2024/02/01 01:31:43;;;;;;;13.48;8.57;;;9.00;99.90;;;;;;4908806;29;20233;-77
2024/02/01 01:34:10;;;;;;;8.20;7.35;;;9.00;99.90;;;;;;4919523;29;20569;-77
2024/02/01 01:36:37;;;;;;;10.40;6.88;;;9.00;99.90;;;;;;4918999;29;20235;-77
2024/02/01 01:39:09;;;;;;;12.93;10.38;;;9.10;99.90;;;;;;4918295;29;20240;-77
2024/02/01 01:41:36;;;;;;;6.97;6.28;;;9.10;99.90;;;;;;4917930;29;20570;-77
2024/02/01 01:44:05;;;;;;;9.82;7.47;;;9.10;99.90;;;;;;4919385;29;20572;-76
2024/02/01 01:46:33;;;;;;;6.20;5.60;;;9.10;99.90;;;;;;4918540;29;20744;-78
2024/02/01 01:49:01;;;;;;;7.47;6.75;;;9.10;99.90;;;;;;4919193;29;20236;-78
2024/02/01 01:51:28;;;;;;;14.23;11.23;;;9.20;99.90;;;;;;4918608;29;20281;-76
2024/02/01 01:53:56;;;;;;;7.18;6.18;;;9.10;99.90;;;;;;4918981;29;20253;-76
2024/02/01 01:56:23;;;;;;;15.13;7.72;;;9.10;99.90;;;;;;4918207;29;20225;-76
2024/02/01 01:58:52;;;;;;;11.75;8.20;;;9.10;99.90;;;;;;4919092;29;20229;-76
2024/02/01 02:01:21;;;;;;;6.30;5.70;;;9.10;99.90;;;;;;4918861;29;20244;-77
2024/02/01 02:03:49;;;;;;;7.35;6.20;;;9.20;99.90;;;;;;4918661;29;20559;-78
2024/02/01 02:06:16;;;;;;;7.88;7.18;;;9.20;99.90;;;;;;4918796;29;20312;-78
2024/02/01 02:08:43;;;;;;;6.85;6.25;;;9.20;99.90;;;;;;4918173;29;20225;-77
2024/02/01 02:11:14;;;;;;;8.07;6.38;;;9.20;99.90;;;;;;4919004;29;20228;-76
2024/02/01 02:13:47;;;;;;;6.53;5.93;;;9.20;99.90;;;;;;4918385;29;20241;-78
2024/02/01 02:16:16;;;;;;;12.82;8.88;;;9.20;99.90;;;;;;4918782;29;20297;-78
2024/02/01 02:18:44;;;;;;;7.03;6.30;;;9.20;99.90;;;;;;4917977;29;20233;-78
2024/02/01 02:21:15;;;;;;;8.45;7.65;;;9.20;99.90;;;;;;4918533;29;20230;-78
2024/02/01 02:23:49;;;;;;;10.63;8.70;;;9.20;99.90;;;;;;4918104;29;20229;-76
2024/02/01 02:26:16;;;;;;;12.85;10.60;;;9.30;99.90;;;;;;4918281;29;20226;-77
2024/02/01 02:28:43;;;;;;;8.85;7.93;;;9.20;99.90;;;;;;4918168;29;20748;-76
2024/02/01 02:31:10;;;;;;;7.53;6.72;;;9.20;99.90;;;;;;4917700;29;20233;-77
2024/02/01 02:33:37;;;;;;;8.00;7.20;;;9.10;99.90;;;;;;4917782;29;20237;-78
2024/02/01 02:36:09;;;;;;;9.63;7.32;;;9.10;99.90;;;;;;4918384;29;20233;-76
2024/02/01 02:38:39;;;;;;;11.65;8.80;;;9.10;99.90;;;;;;4907606;29;20297;-76
2024/02/01 02:41:07;;;;;;;10.88;9.77;;;9.10;99.90;;;;;;4917513;29;20221;-78
2024/02/01 02:43:34;;;;;;;10.55;8.15;;;9.00;99.90;;;;;;4917563;29;20265;-78
2024/02/01 02:46:01;;;;;;;9.90;8.90;;;9.00;99.90;;;;;;4918124;29;20664;-77
2024/02/01 02:48:28;;;;;;;9.30;8.38;;;8.90;99.90;;;;;;4918330;29;20229;-76
2024/02/01 02:50:55;;;;;;;7.80;7.10;;;8.90;99.90;;;;;;4917326;29;20280;-76
2024/02/01 02:53:22;;;;;;;7.88;6.72;;;9.00;99.90;;;;;;4917318;29;20313;-76
2024/02/01 02:55:49;;;;;;;12.23;7.75;;;9.00;99.90;;;;;;4917705;29;20237;-78
2024/02/01 02:58:18;;;;;;;8.05;7.25;;;9.00;99.90;;;;;;4917848;29;20229;-76
2024/02/01 03:00:45;;;;;;;8.38;7.05;;;8.80;99.90;;;;;;4917296;29;20228;-75
2024/02/01 03:03:12;;;;;;;10.50;9.32;;;8.80;99.90;;;;;;4917802;29;20320;-79
2024/02/01 03:05:39;;;;;;;9.73;8.10;;;8.80;99.90;;;;;;4917387;29;20452;-78
2024/02/01 03:08:09;;;;;;;10.85;9.55;;;8.80;99.90;;;;;;4917359;29;20687;-77
2024/02/01 03:10:36;;;;;;;9.15;7.47;;;8.80;99.90;;;;;;4911329;29;20241;-76
2024/02/01 03:13:05;;;;;;;8.32;7.53;;;8.80;99.90;;;;;;4898782;29;20681;-77
2024/02/01 03:15:34;;;;;;;13.10;8.77;;;8.80;99.90;;;;;;4898303;29;20218;-75
2024/02/01 03:18:01;;;;;;;8.60;7.80;;;8.80;99.90;;;;;;4898168;29;20234;-76
2024/02/01 03:20:28;;;;;;;8.18;7.47;;;8.80;99.90;;;;;;4898834;29;20252;-77
2024/02/01 03:22:55;;;;;;;9.18;7.45;;;8.80;99.90;;;;;;4898449;29;20230;-77
2024/02/01 03:25:28;;;;;;;15.48;12.00;;;8.80;99.90;;;;;;4905167;29;20377;-78
2024/02/01 03:28:00;;;;;;;11.10;9.15;;;8.70;99.90;;;;;;4901478;29;20261;-78
2024/02/01 03:30:28;;;;;;;13.05;10.48;;;8.70;99.90;;;;;;4900304;29;20744;-78
2024/02/01 03:32:56;;;;;;;11.55;8.98;;;8.70;99.90;;;;;;4899571;29;20234;-78
2024/02/01 03:35:23;;;;;;;11.38;8.68;;;8.70;99.90;;;;;;4899132;29;20305;-78
2024/02/01 03:37:50;;;;;;;15.43;7.32;;;8.70;99.90;;;;;;4897921;29;20230;-78
2024/02/01 03:40:19;;;;;;;7.40;6.70;;;8.60;99.90;;;;;;4898421;29;20225;-77
2024/02/01 03:42:47;;;;;;;10.70;6.88;;;8.70;99.90;;;;;;4897282;29;20233;-77
2024/02/01 03:45:14;;;;;;;7.30;6.65;;;8.70;99.90;;;;;;4898519;29;20234;-77
2024/02/01 03:47:59;;;;;;;16.75;8.27;;;8.70;99.90;;;;;;4890531;29;20237;-77
2024/02/01 03:50:28;;;;;;;8.20;7.45;;;8.60;99.90;;;;;;4914555;29;20277;-78
2024/02/01 03:52:55;;;;;;;8.50;7.57;;;8.70;99.90;;;;;;4916634;29;20283;-77
2024/02/01 03:55:23;;;;;;;8.60;7.80;;;8.60;99.90;;;;;;4917276;29;20569;-77
2024/02/01 03:57:50;;;;;;;8.32;7.47;;;8.60;99.90;;;;;;4916425;29;20236;-77
2024/02/01 04:00:28;;;;;;;16.10;12.27;;;8.60;99.90;;;;;;4917056;29;20252;-77
2024/02/01 04:02:56;;;;;;;9.77;8.75;;;8.60;99.90;;;;;;4905353;29;20241;-77
2024/02/01 04:05:48;;;;;;;19.15;13.45;;;8.60;99.90;;;;;;4916410;29;20225;-77
2024/02/01 04:08:19;;;;;;;9.85;7.68;;;8.60;99.90;;;;;;4916283;29;20226;-77
2024/02/01 04:10:46;;;;;;;9.45;8.48;;;8.50;99.90;;;;;;4917029;29;20221;-79
2024/02/01 04:13:13;;;;;;;7.43;6.72;;;8.60;99.90;;;;;;4916405;29;20264;-80
2024/02/01 04:15:42;;;;;;;7.78;6.97;;;8.60;99.90;;;;;;4916784;29;20692;-78
2024/02/01 04:18:09;;;;;;;12.55;10.00;;;8.70;99.90;;;;;;4916445;29;20276;-78
2024/02/01 04:20:38;;;;;;;9.77;8.88;;;8.60;99.90;;;;;;4916970;29;20239;-79
2024/02/01 04:23:06;;;;;;;9.13;7.75;;;8.60;99.90;;;;;;4916447;29;20316;-79
2024/02/01 04:25:34;;;;;;;8.25;7.45;;;8.60;99.90;;;;;;4906294;29;20232;-78
2024/02/01 04:28:01;;;;;;;9.00;8.10;;;8.70;99.90;;;;;;4915712;29;20564;-76
2024/02/01 04:30:28;;;;;;;8.48;7.63;;;8.60;99.90;;;;;;4916814;29;20676;-76
2024/02/01 04:32:55;;;;;;;11.18;7.60;;;8.70;99.90;;;;;;4916394;29;20684;-76
2024/02/01 04:35:22;;;;;;;10.77;7.93;;;8.70;99.90;;;;;;4915951;29;20654;-79
2024/02/01 04:37:52;;;;;;;9.55;8.15;;;8.70;99.90;;;;;;4916517;29;20546;-76
2024/02/01 04:40:20;;;;;;;14.38;11.27;;;8.70;99.90;;;;;;4916261;29;20277;-79
2024/02/01 04:42:51;;;;;;;13.75;10.45;;;8.70;99.90;;;;;;4916371;29;20301;-76
2024/02/01 04:45:18;;;;;;;10.02;8.07;;;8.70;99.90;;;;;;4905016;29;20739;-77
2024/02/01 04:47:46;;;;;;;8.35;7.55;;;8.70;99.90;;;;;;4916302;29;20218;-79
2024/02/01 04:50:13;;;;;;;9.48;8.23;;;8.80;99.90;;;;;;4916520;29;20225;-78
2024/02/01 04:52:41;;;;;;;10.05;9.10;;;8.70;99.90;;;;;;4916650;29;20240;-79
2024/02/01 04:55:09;;;;;;;8.85;8.15;;;8.70;99.90;;;;;;4920149;29;20227;-79
2024/02/01 04:57:36;;;;;;;8.70;7.90;;;8.70;99.90;;;;;;4920002;29;20253;-79
2024/02/01 05:00:13;;;;;;;10.63;8.52;;;8.80;99.90;;;;;;4919748;29;20231;-79
2024/02/01 05:02:41;;;;;;;8.68;7.82;;;8.80;99.90;;;;;;4919968;29;20299;-79
2024/02/01 05:05:08;;;;;;;11.27;9.50;;;8.80;99.90;;;;;;4919934;29;20561;-79
2024/02/01 05:07:36;;;;;;;8.32;7.50;;;8.70;99.90;;;;;;4919980;29;20228;-78
2024/02/01 05:10:04;;;;;;;9.80;8.73;;;8.70;99.90;;;;;;4919347;29;21772;-78
2024/02/01 05:12:31;;;;;;;10.48;9.48;;;8.80;99.90;;;;;;4919914;29;20234;-78
2024/02/01 05:14:59;;;;;;;9.73;8.82;;;8.70;99.90;;;;;;4919362;29;20625;-78
2024/02/01 05:17:28;;;;;;;15.15;12.48;;;8.70;99.90;;;;;;4919753;29;20304;-79
2024/02/01 05:19:58;;;;;;;11.30;9.25;;;8.70;99.90;;;;;;4919200;29;20226;-79
2024/02/01 05:22:25;;;;;;;12.18;8.93;;;8.70;99.90;;;;;;4919626;29;20233;-78
2024/02/01 05:24:52;;;;;;;10.23;8.55;;;8.70;99.90;;;;;;4908665;29;20237;-78
2024/02/01 05:27:22;;;;;;;9.65;8.65;;;8.70;99.90;;;;;;4919760;29;20296;-78
2024/02/01 05:29:51;;;;;;;11.60;10.60;;;8.70;99.90;;;;;;4919238;29;20337;-78
2024/02/01 05:32:18;;;;;;;11.40;10.25;;;8.80;99.90;;;;;;4919316;29;20237;-78
2024/02/01 05:34:47;;;;;;;9.75;8.75;;;8.70;99.90;;;;;;4919671;29;20230;-79
2024/02/01 05:37:16;;;;;;;15.85;10.25;;;8.80;99.90;;;;;;4919324;29;20648;-79
2024/02/01 05:39:44;;;;;;;9.88;8.90;;;8.80;99.90;;;;;;4919613;29;20229;-78
2024/02/01 05:42:13;;;;;;;10.95;9.75;;;8.80;99.90;;;;;;4919275;29;20692;-78
2024/02/01 05:44:40;;;;;;;9.68;8.75;;;8.80;99.90;;;;;;4919727;29;20631;-78
2024/02/01 05:47:07;;;;;;;12.40;11.10;;;8.90;99.90;;;;;;4918903;29;20235;-79
2024/02/01 05:49:34;;;;;;;10.57;9.68;;;8.80;99.90;;;;;;4917982;29;20688;-79
2024/02/01 05:52:04;;;;;;;11.85;10.68;;;8.90;99.90;;;;;;4918895;29;20233;-78
2024/02/01 05:54:32;;;;;;;13.70;12.07;;;8.80;99.90;;;;;;4919318;29;20494;-79
2024/02/01 05:57:00;;;;;;;12.70;11.15;;;8.80;99.90;;;;;;4918625;29;20233;-78
2024/02/01 05:59:27;;;;;;;11.30;10.20;;;8.80;99.90;;;;;;4919088;29;20233;-78
2024/02/01 06:01:54;;;;;;;12.40;11.13;;;8.80;99.90;;;;;;4917898;29;20236;-79
2024/02/01 06:04:21;;;;;;;11.40;10.30;;;8.80;99.90;;;;;;4918523;29;20232;-78
2024/02/01 06:06:49;;;;;;;12.88;10.10;;;8.90;99.90;;;;;;4919176;29;20237;-78
2024/02/01 06:09:17;;;;;;;11.55;10.35;;;8.90;99.90;;;;;;4918254;29;20225;-79
2024/02/01 06:11:47;;;;;;;9.88;8.88;;;8.90;99.90;;;;;;4918824;29;20423;-77
2024/02/01 06:14:15;;;;;;;11.63;10.30;;;8.90;99.90;;;;;;4918441;29;20273;-77
2024/02/01 06:16:43;;;;;;;12.48;11.27;;;8.90;99.90;;;;;;4924369;29;20237;-77
2024/02/01 06:19:11;;;;;;;15.15;12.75;;;9.00;99.90;;;;;;4925893;29;20237;-78
2024/02/01 06:21:38;;;;;;;11.88;10.77;;;9.00;99.90;;;;;;4920275;29;20230;-77
2024/02/01 06:24:05;;;;;;;13.70;11.70;;;9.00;99.90;;;;;;4909134;29;20237;-78
2024/02/01 06:26:36;;;;;;;12.07;10.88;;;9.10;99.90;;;;;;4919807;29;20229;-77
2024/02/01 06:29:07;;;;;;;11.32;10.13;;;9.10;99.90;;;;;;4918106;29;20239;-77
2024/02/01 06:31:37;;;;;;;12.45;11.18;;;9.10;99.90;;;;;;4918611;29;20233;-77
2024/02/01 06:34:05;;;;;;;18.85;11.32;;;9.10;99.90;;;;;;4917868;29;20243;-77
2024/02/01 06:36:36;;;;;;;14.32;11.43;;;9.10;99.90;;;;;;4918499;29;20231;-78
2024/02/01 06:39:16;;;;;;;12.40;11.10;;;9.10;99.90;;;;;;4898587;29;20580;-77
2024/02/01 06:41:50;;;;;;;12.75;11.30;;;9.20;99.90;;;;;;4917620;29;20281;-78
2024/02/01 06:44:28;;;;;;;14.30;10.88;;;9.20;99.90;;;;;;4917863;29;20289;-77
2024/02/01 06:47:11;;;;;;;13.27;10.63;;;9.20;99.90;;;;;;4918037;29;20221;-76
2024/02/01 06:50:00;;;;;;;12.55;10.70;;;9.20;99.90;;;;;;4917608;29;20233;-78
2024/02/01 06:52:39;;;;;;;11.27;10.07;;;9.20;99.90;;;;;;4907214;29;20225;-78
2024/02/01 06:55:24;;;;;;;18.27;14.40;;;9.20;99.90;;;;;;4918398;29;20754;-78
2024/02/01 06:58:13;;;;;;;13.35;11.98;;;9.20;99.90;;;;;;4917933;29;20225;-78
2024/02/01 07:01:01;;;;;;;14.63;13.20;;;9.10;99.90;;;;;;4917556;29;20558;-78
2024/02/01 07:03:51;;;;;;;12.48;11.35;;;9.20;99.90;;;;;;4917483;29;20558;-78
2024/02/01 07:06:33;;;;;;;11.85;10.75;;;9.20;99.90;;;;;;4917574;29;20229;-77
2024/02/01 07:11:48;;;;;;;17.60;12.00;;;9.20;99.90;;;;;;4916827;29;20225;-76
2024/02/01 07:14:17;;;;;;;11.20;10.25;;;9.20;99.90;;;;;;4917494;29;20240;-77
2024/02/01 07:17:06;;;;;;;14.38;10.68;;;9.20;99.90;;;;;;4916619;29;20221;-77
2024/02/01 07:19:52;;;;;;;10.98;10.00;;;9.20;99.90;;;;;;4917461;29;20256;-77
2024/02/01 07:22:35;;;;;;;10.73;9.73;;;9.30;99.90;;;;;;4917260;29;20680;-77
2024/02/01 07:25:10;;;;;;;11.68;10.57;;;9.20;99.90;;;;;;4918090;29;20256;-77
2024/02/01 07:58:08;;;;;;;8.30;7.60;;;9.40;99.90;;;;;;4917364;29;20379;-75
2024/02/01 08:00:45;;;;;;;8.68;7.47;;;9.40;99.90;;;;;;4916731;29;20225;-75
2024/02/01 08:03:32;;;;;;;8.50;7.20;;;9.50;99.90;;;;;;4917209;29;20312;-77
2024/02/01 08:08:44;;;;;;;12.38;10.05;;;9.40;99.90;;;;;;4916869;29;20280;-77
2024/02/01 08:11:17;;;;;;;11.60;8.10;;;9.50;99.90;;;;;;4916901;29;20230;-77
2024/02/01 08:13:48;;;;;;;7.00;6.30;;;9.50;99.90;;;;;;4916472;29;20333;-76
2024/02/01 08:16:18;;;;;;;6.30;5.80;;;9.50;99.90;;;;;;4916664;29;20257;-77
2024/02/01 08:18:49;;;;;;;8.98;6.75;;;9.50;99.90;;;;;;4916716;29;20668;-77
2024/02/01 08:21:16;;;;;;;6.65;5.60;;;9.40;99.90;;;;;;4908530;29;20229;-77
2024/02/01 08:23:44;;;;;;;6.75;6.10;;;9.40;99.90;;;;;;4916526;29;20683;-75
2024/02/01 08:26:13;;;;;;;9.40;5.97;;;9.40;99.90;;;;;;4916531;29;20229;-78
2024/02/01 08:28:40;;;;;;;7.90;6.45;;;9.40;99.90;;;;;;4918534;29;20221;-79
2024/02/01 08:31:13;;;;;;;8.27;5.97;;;9.50;99.90;;;;;;4920629;29;20676;-78
2024/02/01 08:33:42;;;;;;;9.27;6.13;;;9.50;99.90;;;;;;4920069;29;20770;-79
2024/02/01 08:36:12;;;;;;;7.80;5.28;;;9.50;99.90;;;;;;4912148;29;20548;-78
2024/02/01 08:38:42;;;;;;;7.68;6.10;;;9.40;99.90;;;;;;4919834;29;20229;-79
2024/02/01 08:41:11;;;;;;;11.00;7.35;;;9.40;99.90;;;;;;4920342;29;20280;-76
2024/02/01 08:43:40;;;;;;;6.10;5.50;;;9.40;99.90;;;;;;4920056;29;20280;-77
2024/02/01 08:46:08;;;;;;;9.15;6.13;;;9.40;99.90;;;;;;4920423;29;20237;-79
2024/02/01 08:48:39;;;;;;;7.32;5.57;;;9.40;99.90;;;;;;4919685;29;20236;-77
2024/02/01 08:51:11;;;;;;;6.47;5.30;;;9.40;99.90;;;;;;4919968;29;20225;-77
2024/02/01 08:53:43;;;;;;;9.57;5.07;;;9.40;99.90;;;;;;4919724;29;20578;-78
2024/02/01 08:56:10;;;;;;;14.93;11.70;;;9.40;99.90;;;;;;4920474;29;20573;-78
2024/02/01 08:58:38;;;;;;;9.50;5.68;;;9.40;99.90;;;;;;4919347;29;20571;-77
2024/02/01 09:01:06;;;;;;;5.75;4.70;;;9.40;99.90;;;;;;4918412;29;20245;-78
2024/02/01 09:03:35;;;;;;;9.55;5.63;;;9.40;99.90;;;;;;4919208;29;20238;-78
2024/02/01 09:06:09;;;;;;;7.60;5.35;;;9.50;99.90;;;;;;4919932;29;20229;-76
2024/02/01 09:08:39;;;;;;;6.85;5.13;;;9.40;99.90;;;;;;4920045;29;20327;-78
2024/02/01 09:11:11;;;;;;;7.25;4.47;;;9.50;99.90;;;;;;4920138;29;20228;-77
2024/02/01 09:13:38;;;;;;;7.80;4.20;;;9.50;99.90;;;;;;4919101;29;20672;-77
2024/02/01 09:16:08;;;;;;;10.63;5.10;;;9.50;99.90;;;;;;4919976;29;20312;-76
2024/02/01 09:18:35;;;;;;;5.10;3.95;;;9.60;99.90;;;;;;4919442;29;20221;-76
2024/02/01 09:21:02;;;;;;;10.35;4.97;;;9.60;99.90;;;;;;4919593;29;20226;-78
2024/02/01 09:23:29;;;;;;;8.13;5.03;;;9.60;99.90;;;;;;4920035;29;20233;-76
2024/02/01 09:25:58;;;;;;;9.90;4.20;;;9.60;99.90;;;;;;4918153;29;20232;-76
2024/02/01 09:28:26;;;;;;;8.95;6.70;;;9.60;99.90;;;;;;4919511;29;20244;-76
2024/02/01 09:30:55;;;;;;;7.78;4.30;;;9.60;99.90;;;;;;4919354;29;20284;-76
2024/02/01 09:33:27;;;;;;;7.18;4.30;;;9.50;99.90;;;;;;4919399;29;20243;-76
2024/02/01 09:35:56;;;;;;;10.73;5.60;;;9.50;99.90;;;;;;4918880;29;20697;-78
2024/02/01 09:38:23;;;;;;;9.50;4.72;;;9.60;99.90;;;;;;4919728;29;20284;-76
2024/02/01 09:40:51;;;;;;;6.18;3.90;;;9.60;99.90;;;;;;4918580;29;20577;-78
2024/02/01 09:43:20;;;;;;;9.18;4.68;;;9.60;99.90;;;;;;4919873;29;20315;-76
2024/02/01 09:45:48;;;;;;;10.45;4.68;;;9.70;99.90;;;;;;4919612;29;20229;-76
2024/02/01 09:48:17;;;;;;;10.48;3.72;;;9.70;99.90;;;;;;4919834;29;20249;-76
2024/02/01 09:50:54;;;;;;;7.78;2.85;;;9.60;99.90;;;;;;4918564;29;20331;-76
2024/02/01 09:53:24;;;;;;;8.38;3.60;;;9.60;99.90;;;;;;4919231;29;20229;-77
2024/02/01 09:55:53;;;;;;;8.35;3.35;;;9.60;99.90;;;;;;4918435;29;20230;-76
2024/02/01 09:58:22;;;;;;;8.73;3.10;;;9.60;99.90;;;;;;4919521;29;20225;-76
2024/02/01 10:00:50;;;;;;;8.35;3.28;;;9.70;99.90;;;;;;4918602;29;20241;-77
2024/02/01 10:03:22;;;;;;;9.98;3.53;;;9.70;99.90;;;;;;4919626;29;20226;-76
2024/02/01 10:05:51;;;;;;;3.97;2.65;;;9.70;99.90;;;;;;4918613;29;20258;-76
2024/02/01 10:08:19;;;;;;;9.93;4.95;;;9.80;99.90;;;;;;4910301;29;20226;-76
2024/02/01 10:10:48;;;;;;;13.57;3.45;;;9.70;99.90;;;;;;4918438;29;20293;-78
2024/02/01 10:13:16;;;;;;;6.35;2.95;;;9.70;99.90;;;;;;4918763;29;20232;-76
2024/02/01 10:15:46;;;;;;;15.73;6.00;;;9.80;99.90;;;;;;4917817;29;20710;-76
2024/02/01 10:18:20;;;;;;;6.28;3.10;;;9.80;99.90;;;;;;4918889;29;20225;-76
2024/02/01 10:20:51;;;;;;;13.25;4.78;;;9.80;99.90;;;;;;4918126;29;20559;-78
2024/02/01 10:23:21;;;;;;;8.35;3.65;;;9.80;99.90;;;;;;4918875;29;20695;-76
2024/02/01 10:25:50;;;;;;;7.35;3.83;;;9.90;99.90;;;;;;4918023;29;20229;-77
2024/02/01 10:28:18;;;;;;;5.40;3.17;;;9.90;99.90;;;;;;4918186;29;20233;-77
2024/02/01 10:30:48;;;;;;;12.63;4.85;;;10.00;99.90;;;;;;4917763;29;20229;-76
2024/02/01 10:33:17;;;;;;;5.78;3.70;;;10.10;99.90;;;;;;4917843;29;20257;-77
2024/02/01 10:35:48;;;;;;;5.45;2.47;;;10.20;99.90;;;;;;4916482;29;20229;-77
2024/02/01 10:38:21;;;;;;;7.32;3.00;;;10.20;99.90;;;;;;4918544;29;20225;-77
2024/02/01 10:40:58;;;;;;;9.20;2.70;;;10.20;99.90;;;;;;4917425;29;20248;-76
2024/02/01 10:43:27;;;;;;;5.60;2.85;;;10.20;99.90;;;;;;4917905;29;20233;-76
2024/02/01 10:46:06;;;;;;;12.02;3.50;;;10.20;99.90;;;;;;4918068;29;20236;-75
2024/02/01 10:48:36;;;;;;;6.22;3.50;;;10.20;99.90;;;;;;4919068;29;20239;-76
2024/02/01 10:51:09;;;;;;;9.00;2.55;;;10.30;99.90;;;;;;4917294;29;20225;-76
2024/02/01 10:53:39;;;;;;;6.78;3.25;;;10.30;99.90;;;;;;4917880;29;20321;-75
2024/02/01 10:56:13;;;;;;;9.30;4.18;;;10.30;99.90;;;;;;4917777;29;20640;-76
2024/02/01 10:58:43;;;;;;;5.32;3.20;;;10.30;99.90;;;;;;4918004;29;20225;-75
2024/02/01 11:01:13;;;;;;;9.38;3.13;;;10.30;99.90;;;;;;4917669;29;20225;-77
2024/02/01 11:03:44;;;;;;;8.05;3.75;;;10.30;99.90;;;;;;4917735;29;20229;-75
2024/02/01 11:06:11;;;;;;;8.65;3.05;;;10.30;99.90;;;;;;4918290;29;20226;-77
2024/02/01 11:08:41;;;;;;;9.80;3.40;;;10.30;99.90;;;;;;4918049;29;20305;-76
2024/02/01 11:11:16;;;;;;;11.88;3.97;;;10.20;99.90;;;;;;4917356;29;20265;-76
2024/02/01 11:13:43;;;;;;;8.38;4.35;;;10.20;99.90;;;;;;4917772;29;20236;-75
2024/02/01 11:16:12;;;;;;;9.23;2.95;;;10.20;99.90;;;;;;4916946;29;20226;-76
2024/02/01 11:18:50;;;;;;;9.55;3.72;;;10.20;99.90;;;;;;4917933;29;20233;-77
2024/02/01 11:21:30;;;;;;;13.48;3.80;;;10.20;99.90;;;;;;4916881;29;20236;-77
2024/02/01 11:24:08;;;;;;;5.82;2.13;;;10.10;99.90;;;;;;4916687;29;20684;-77
2024/02/01 11:26:41;;;;;;;7.28;3.20;;;10.20;99.90;;;;;;4918414;29;20225;-77
2024/02/01 11:29:09;;;;;;;7.22;3.63;;;10.10;99.90;;;;;;4917502;29;20256;-77
2024/02/01 11:31:45;;;;;;;12.45;4.32;;;10.10;99.90;;;;;;4917399;29;20229;-77
2024/02/01 11:34:16;;;;;;;9.55;3.70;;;10.10;99.90;;;;;;4916376;29;20228;-75
2024/02/01 11:36:44;;;;;;;8.05;3.00;;;10.10;99.90;;;;;;4917547;29;20229;-78
2024/02/01 11:39:13;;;;;;;6.55;3.40;;;10.10;99.90;;;;;;4917862;29;20277;-76
2024/02/01 11:41:46;;;;;;;9.75;3.28;;;10.10;99.90;;;;;;4917578;29;20257;-75
2024/02/01 11:44:13;;;;;;;7.50;3.72;;;10.00;99.90;;;;;;4917355;29;20236;-76
2024/02/01 11:46:45;;;;;;;5.30;3.50;;;10.00;99.90;;;;;;4921920;29;20312;-75
2024/02/01 11:49:17;;;;;;;6.30;2.83;;;9.90;99.90;;;;;;4917147;29;20233;-76
2024/02/01 11:51:45;;;;;;;9.93;3.10;;;10.00;99.90;;;;;;4917165;29;20254;-76
2024/02/01 11:54:13;;;;;;;7.07;2.80;;;10.00;99.90;;;;;;4916977;29;20233;-75
2024/02/01 11:56:43;;;;;;;6.05;2.80;;;10.00;99.90;;;;;;4917152;29;20232;-76
2024/02/01 11:59:10;;;;;;;12.65;5.38;;;9.90;99.90;;;;;;4916689;29;20233;-76
2024/02/01 12:01:37;;;;;;;11.13;3.78;;;10.00;99.90;;;;;;4917034;29;20228;-75
2024/02/01 12:04:07;;;;;;;13.20;3.33;;;9.90;99.90;;;;;;4915860;29;20621;-76
2024/02/01 12:06:35;;;;;;;8.73;3.00;;;9.90;99.90;;;;;;4916891;29;20235;-75
2024/02/01 12:09:05;;;;;;;7.93;2.42;;;10.00;99.90;;;;;;4916696;29;20290;-75
2024/02/01 12:11:34;;;;;;;6.32;2.80;;;10.00;99.90;;;;;;4916232;29;20236;-76
2024/02/01 12:14:02;;;;;;;16.67;3.20;;;10.10;99.90;;;;;;4916473;29;20296;-77
2024/02/01 12:16:33;;;;;;;11.70;3.05;;;10.20;99.90;;;;;;4917022;29;20235;-77
2024/02/01 12:19:01;;;;;;;9.93;2.80;;;10.20;99.90;;;;;;4916446;29;20230;-76
2024/02/01 12:21:30;;;;;;;7.50;2.60;;;10.20;99.90;;;;;;4916879;29;20329;-76
2024/02/01 12:23:58;;;;;;;11.80;4.43;;;10.20;99.90;;;;;;4916916;29;20304;-75
2024/02/01 12:26:26;;;;;;;10.90;4.07;;;10.20;99.90;;;;;;4916419;29;20308;-75
2024/02/01 12:28:55;;;;;;;13.68;3.88;;;10.10;99.90;;;;;;4917030;29;20233;-77
2024/02/01 12:31:22;;;;;;;10.35;4.80;;;10.10;99.90;;;;;;4916588;29;20289;-77
2024/02/01 12:33:50;;;;;;;16.65;7.60;;;10.10;99.90;;;;;;4916854;29;20251;-77
2024/02/01 12:36:17;;;;;;;10.43;3.80;;;10.20;99.90;;;;;;4916226;29;20229;-77
2024/02/01 12:38:47;;;;;;;9.68;5.05;;;10.10;99.90;;;;;;4916961;29;20239;-75
2024/02/01 12:41:14;;;;;;;10.43;3.47;;;10.20;99.90;;;;;;4915893;29;20552;-75
2024/02/01 12:43:44;;;;;;;8.30;2.80;;;10.30;99.90;;;;;;4916525;29;20229;-75
2024/02/01 12:46:12;;;;;;;9.00;3.05;;;10.30;99.90;;;;;;4916486;29;20312;-75
2024/02/01 12:48:40;;;;;;;7.65;3.00;;;10.30;99.90;;;;;;4916894;29;20665;-74
2024/02/01 12:51:07;;;;;;;12.95;4.68;;;10.30;99.90;;;;;;4915907;29;20237;-75
2024/02/01 12:53:35;;;;;;;8.48;4.25;;;10.30;99.90;;;;;;4916786;29;20626;-77
2024/02/01 12:56:04;;;;;;;13.32;3.80;;;10.30;99.90;;;;;;4916599;29;20240;-75
2024/02/01 12:58:39;;;;;;;9.15;3.78;;;10.40;99.90;;;;;;4916168;29;20320;-75
2024/02/01 13:01:07;;;;;;;7.07;3.17;;;10.30;99.90;;;;;;4916491;29;20232;-75
2024/02/01 13:03:35;;;;;;;7.32;2.85;;;10.30;99.90;;;;;;4916203;29;20234;-75
2024/02/01 13:06:02;;;;;;;13.48;4.80;;;10.20;99.90;;;;;;4916674;29;20313;-75
2024/02/01 13:08:29;;;;;;;8.63;3.40;;;10.20;99.90;;;;;;4916127;29;20248;-75
2024/02/01 13:10:56;;;;;;;14.77;4.47;;;10.30;99.90;;;;;;4916534;29;20308;-75
2024/02/01 13:13:25;;;;;;;16.80;3.97;;;10.20;99.90;;;;;;4915456;29;20241;-76
2024/02/01 13:15:52;;;;;;;13.13;4.28;;;10.20;99.90;;;;;;4918699;29;20320;-75
2024/02/01 13:18:22;;;;;;;20.35;4.25;;;10.20;99.90;;;;;;4919593;29;20688;-76
2024/02/01 13:20:49;;;;;;;9.50;4.85;;;10.20;99.90;;;;;;4919954;29;20233;-75
2024/02/01 13:23:17;;;;;;;12.98;5.30;;;10.20;99.90;;;;;;4919500;29;20244;-78
2024/02/01 13:25:45;;;;;;;14.15;6.60;;;10.30;99.90;;;;;;4919620;29;20253;-76
2024/02/01 13:28:12;;;;;;;8.57;3.53;;;10.30;99.90;;;;;;4920313;29;20264;-76
2024/02/01 13:30:43;;;;;;;11.60;3.67;;;10.30;99.90;;;;;;4920074;29;20225;-75
2024/02/01 13:33:10;;;;;;;8.00;3.00;;;10.30;99.90;;;;;;4919423;29;20229;-75
2024/02/01 13:35:38;;;;;;;13.73;3.50;;;10.30;99.90;;;;;;4919340;29;20657;-75